Terminal Aerodrome Forecast
Issued by NWS

Home | Current Version | Previous Version | Text Only | Print | Product List | Glossary On
Versions: 1 2 3 4 5 6 7 8 9 10 11 12
000
FTUS41 KPHI 301721
TAFPNE
TAF
KPNE 301721Z 3018/3118 VRB05KT P6SM FEW050
      TEMPO 3019/3021 BKN050
     FM302200 12004KT P6SM FEW200
     FM310200 VRB02KT P6SM SKC
      TEMPO 3109/3111 5SM BR
     FM311400 23005KT P6SM SKC=

USA.gov is the U.S. government's official web portal to all federal, state and local government web resources and services.